METAR Data
IDs: Format: Raw Decoded Include TAF

Data at: 1620 UTC 19 Sep 2018

KEZF 191555Z AUTO 36011G15KT 10SM SCT034 28/21 A2994 RMK AO2 T02840210
KEZF 191535Z AUTO 36008G16KT 340V040 10SM CLR 28/21 A2994 RMK AO2 T02790210
KEZF 191515Z AUTO 36008KT 10SM CLR 28/21 A2994 RMK AO2 T02760210
KEZF 191455Z AUTO 34006KT 10SM CLR 28/21 A2994 RMK AO2 T02750214
KEZF 191435Z AUTO 34008G16KT 10SM CLR 27/21 A2994 RMK AO2 T02700212
KEZF 191415Z AUTO 34005G14KT 10SM CLR 27/21 A2994 RMK AO2 T02660210
KEZF 191355Z AUTO 34010G14KT 10SM CLR 26/21 A2994 RMK AO2 T02620209
KEZF 191335Z AUTO 35005KT 10SM CLR 26/21 A2993 RMK AO2 T02600213
KEZF 191315Z AUTO 34006KT 10SM CLR 25/21 A2992 RMK AO2 T02510211
KEZF 191255Z AUTO 31004KT 10SM CLR 24/22 A2992 RMK AO2 T02390220
KEZF 191235Z AUTO 32003KT 10SM CLR 23/22 A2992 RMK AO2 T02260221
KEZF 191215Z AUTO 00000KT 10SM CLR 21/21 A2991 RMK AO2 T02120212
KEZF 191155Z AUTO 00000KT 10SM CLR 20/20 A2991 RMK AO2 T02000200 10211 20190
KEZF 191135Z AUTO 00000KT 10SM CLR 20/20 A2990 RMK AO2 T01950195
KEZF 191115Z AUTO 00000KT 10SM CLR 19/19 A2990 RMK AO2 T01900190
KEZF 191055Z AUTO 00000KT 10SM CLR 20/20 A2989 RMK AO2 T01960196
KEZF 191035Z AUTO 31003KT 10SM CLR 20/20 A2989 RMK AO2 T01960196
KEZF 191015Z AUTO 31004KT 10SM CLR 20/20 A2989 RMK AO2 T01970197
KEZF 190955Z AUTO 31004KT 10SM CLR 20/20 A2988 RMK AO2 T01960196
KEZF 190935Z AUTO 31003KT 10SM CLR 20/20 A2988 RMK AO2 T01950195
KEZF 190915Z AUTO 31003KT 10SM CLR 20/20 A2986 RMK AO2 T01970197
KEZF 190855Z AUTO 00000KT 10SM CLR 20/20 A2986 RMK AO2 T02010201
KEZF 190835Z AUTO 31003KT 10SM CLR 20/20 A2986 RMK AO2 T02020202
KEZF 190815Z AUTO 00000KT 10SM CLR 20/20 A2986 RMK AO2 T02040204
KEZF 190755Z AUTO 32003KT 10SM CLR 21/20 A2986 RMK AO2 T02060202
KEZF 190735Z AUTO 31005KT 10SM CLR 21/20 A2986 RMK AO2 T02080201
KEZF 190715Z AUTO 31004KT 10SM CLR 21/20 A2986 RMK AO2 T02080200
KEZF 190655Z AUTO 31005KT 10SM CLR 21/20 A2986 RMK AO2 T02100198
KEZF 190635Z AUTO 31004KT 10SM CLR 21/20 A2986 RMK AO2 T02100198
KEZF 190615Z AUTO 31005KT 10SM CLR 21/20 A2986 RMK AO2 T02110197
KEZF 190555Z AUTO 29005KT 10SM CLR 21/20 A2986 RMK AO2 T02120198 10241 20211 402860211
KEZF 190535Z AUTO 30004KT 10SM CLR 21/20 A2985 RMK AO2 T02130198
KEZF 190515Z AUTO 31004KT 10SM CLR 21/20 A2985 RMK AO2 T02130200
KEZF 190455Z AUTO 31004KT 10SM CLR 21/20 A2985 RMK AO2 T02130201
KEZF 190435Z AUTO 30005KT 10SM CLR 21/21 A2985 RMK AO2 T02120205
KEZF 190415Z AUTO 29005KT 10SM CLR 21/20 A2985 RMK AO2 T02130203
KEZF 190355Z AUTO 30003KT 10SM CLR 22/20 A2985 RMK AO2 T02170200
KEZF 190335Z AUTO 30004KT 10SM CLR 22/20 A2985 RMK AO2 T02190201
KEZF 190315Z AUTO 30003KT 10SM CLR 22/20 A2986 RMK AO2 T02200202
KEZF 190255Z AUTO 30005KT 10SM CLR 22/20 A2986 RMK AO2 T02220203
KEZF 190235Z AUTO 31004KT 10SM CLR 22/21 A2985 RMK AO2 T02230205
KEZF 190215Z AUTO 29003KT 10SM CLR 23/21 A2985 RMK AO2 T02260206
KEZF 190155Z AUTO 00000KT 10SM CLR 23/21 A2985 RMK AO2 T02300206
KEZF 190135Z AUTO 31005KT 10SM CLR 23/21 A2984 RMK AO2 T02280210
KEZF 190115Z AUTO 30004KT 10SM CLR 23/22 A2984 RMK AO2 T02300216
KEZF 190055Z AUTO 31004KT 10SM CLR 23/23 A2983 RMK AO2 T02280228
KEZF 190035Z AUTO 28003KT 10SM CLR 23/23 A2983 RMK AO2 T02290229
KEZF 190015Z AUTO 29003KT 10SM CLR 24/22 A2983 RMK AO2 T02360217
KEZF 182355Z AUTO 30004KT 10SM SCT060 24/22 A2982 RMK AO2 T02410217 10275 20240
KEZF 182335Z AUTO 00000KT 10SM SCT060 25/22 A2982 RMK AO2 T02490219
KEZF 182315Z AUTO 32004KT 10SM BKN060 26/22 A2981 RMK AO2 T02560216
KEZF 182255Z AUTO 33004KT 10SM SCT060 26/22 A2981 RMK AO2 T02630216
KEZF 182235Z AUTO 00000KT 10SM SCT055 27/22 A2980 RMK AO2 T02710215
KEZF 182215Z AUTO 33006KT 10SM SCT055 27/22 A2979 RMK AO2 T02740215
KEZF 182155Z AUTO 35006KT 10SM SCT055 27/22 A2979 RMK AO2 T02730215
KEZF 182135Z AUTO 34006KT 10SM SCT120 27/22 A2978 RMK AO2 T02720217
KEZF 182115Z AUTO 33006KT 10SM OVC120 28/22 A2978 RMK AO2 T02750217
KEZF 182055Z AUTO 34005KT 10SM OVC095 27/22 A2978 RMK AO2 T02670221
KEZF 182035Z AUTO 33003KT 10SM SCT060 BKN085 OVC110 26/23 A2977 RMK AO2 T02600226
KEZF 182015Z AUTO 36003KT 10SM SCT035 SCT044 OVC085 26/22 A2977 RMK AO2 T02550222
KEZF 181955Z AUTO 33006KT 10SM SCT030 BKN044 OVC085 25/22 A2977 RMK AO2 T02530221
KEZF 181935Z AUTO 34007KT 10SM BKN022 OVC033 25/24 A2977 RMK AO2 T02480238
KEZF 181915Z AUTO 34007KT 10SM OVC022 25/24 A2977 RMK AO2 T02450241
KEZF 181855Z AUTO 33005G15KT 10SM BKN019 OVC024 24/24 A2977 RMK AO2 T02440244
KEZF 181835Z AUTO 33004KT 10SM SCT009 BKN019 OVC029 24/24 A2977 RMK AO2 T02410241
KEZF 181815Z AUTO 34009KT 5SM -RA BKN009 BKN017 OVC030 24/24 A2977 RMK AO2 T02410241
KEZF 181755Z AUTO 32004KT 7SM +RA SCT017 BKN035 OVC070 25/25 A2977 RMK AO2 T02480248 10286 20240
KEZF 181735Z AUTO 32005KT 10SM DZ SCT050 BKN065 OVC090 25/25 A2977 RMK AO2 T02510251
KEZF 181715Z AUTO 34006KT 5SM RA SCT021 BKN048 OVC070 25/25 A2977 RMK AO2 T02500250
KEZF 181655Z AUTO 32011G15KT 10SM RA BKN024 BKN034 OVC050 28/24 A2976 RMK AO2 T02770235
KEZF 181635Z AUTO 32003KT 10SM BKN024 BKN040 OVC049 27/24 A2976 RMK AO2 T02710235
KEZF 181615Z AUTO 22006KT 10SM SCT022 SCT028 BKN041 28/23 A2976 RMK AO2 T02810233
KEZF 181555Z AUTO 22004KT 10SM SCT020 BKN043 BKN050 28/24 A2977 RMK AO2 T02820235
KEZF 181535Z AUTO 21005KT 10SM SCT027 SCT043 BKN055 27/25 A2978 RMK AO2 T02720253
KEZF 181515Z AUTO 25006KT 10SM SCT016 SCT027 BKN032 27/25 A2978 RMK AO2 T02660249
KEZF 181455Z AUTO 26005KT 10SM SCT016 BKN032 OVC040 27/25 A2978 RMK AO2 T02670249
KEZF 181435Z AUTO 23004KT 10SM BKN024 OVC038 26/25 A2979 RMK AO2 T02620251
KEZF 181415Z AUTO 23005KT 10SM BKN021 26/25 A2978 RMK AO2 T02590250
KEZF 181355Z AUTO 21005KT 10SM BKN021 26/26 A2978 RMK AO2 T02580258
KEZF 181335Z AUTO 22005KT 10SM OVC019 25/25 A2978 RMK AO2 T02510251
KEZF 181315Z AUTO 21005KT 10SM OVC019 25/25 A2978 RMK AO2 T02500250
KEZF 181255Z AUTO 22004KT 10SM SCT011 OVC019 25/25 A2978 RMK AO2 T02450245
KEZF 181235Z AUTO 20005KT 10SM SCT011 OVC019 24/24 A2978 RMK AO2 T02430243
KEZF 181215Z AUTO 19006KT 10SM OVC019 24/24 A2979 RMK AO2 T02400240
KEZF 181155Z AUTO 19006KT 10SM OVC021 24/24 A2979 RMK AO2 T02400240 10241 20227
KEZF 181135Z AUTO 19005KT 10SM OVC019 24/24 A2980 RMK AO2 T02400240
KEZF 181115Z AUTO 20007KT 10SM BKN019 BKN080 24/24 A2979 RMK AO2 T02380238
KEZF 181055Z AUTO 20008KT 10SM CLR 24/24 A2979 RMK AO2 T02380238
KEZF 181035Z AUTO 19007KT 10SM CLR 24/24 A2979 RMK AO2 T02400240
KEZF 181015Z AUTO 19008KT 10SM SCT012 BKN019 24/24 A2979 RMK AO2 T02400240
KEZF 180955Z AUTO 20006KT 10SM BKN012 BKN019 BKN070 24/24 A2979 RMK AO2 T02400240
KEZF 180935Z AUTO 20006KT 10SM -DZ SCT012 SCT032 BKN090 24/24 A2979 RMK AO2 T02400240
KEZF 180915Z AUTO 18006KT 10SM -RA OVC014 24/24 A2978 RMK AO2 T02400240
KEZF 180855Z AUTO 18004KT 10SM OVC014 24/24 A2979 RMK AO2 T02400240
KEZF 180835Z AUTO 18004KT 10SM OVC014 24/24 A2979 RMK AO2 T02400240
KEZF 180815Z AUTO 19004KT 10SM SCT010 BKN014 24/24 A2979 RMK AO2 T02380238
KEZF 180755Z AUTO 17004KT 10SM SCT009 BKN016 24/24 A2980 RMK AO2 T02350235
KEZF 180735Z AUTO 16003KT 10SM SCT027 23/23 A2980 RMK AO2 T02310231
KEZF 180715Z AUTO 16003KT 10SM SCT020 SCT027 BKN080 23/23 A2981 RMK AO2 T02270227
KEZF 180655Z AUTO 15004KT 10SM SCT035 SCT050 BKN080 23/23 A2981 RMK AO2 T02270227
KEZF 180635Z AUTO 16005KT 10SM BKN033 BKN050 BKN060 23/23 A2982 RMK AO2 T02300230
KEZF 180615Z AUTO 19005KT 10SM -RA SCT035 SCT042 SCT060 23/23 A2982 RMK AO2 T02300230
KEZF 180555Z AUTO 18006KT 10SM -RA SCT037 SCT060 BKN080 23/23 A2982 RMK AO2 T02310231 10250 20227 402560226
KEZF 180535Z AUTO 19008KT 10SM -RA SCT034 BKN050 OVC085 23/23 A2983 RMK AO2 T02280228
KEZF 180515Z AUTO 19008KT 10SM RA BKN050 BKN065 OVC100 23/23 A2984 RMK AO2 T02270227
KEZF 180455Z AUTO 22009KT 10SM RA SCT030 BKN036 OVC060 23/23 A2986 RMK AO2 T02280228
KEZF 180435Z AUTO 23007KT 10SM RA SCT011 BKN031 OVC046 23/23 A2986 RMK AO2 T02330233